createdAt,value
2022-08-05T07:37:22.532Z,29.70
2022-08-05T07:52:27.316Z,31.40
2022-08-05T08:07:39.638Z,32.50
2022-08-05T08:23:00.177Z,32.80
2022-08-05T08:38:07.989Z,33.00
2022-08-05T08:53:17.219Z,33.30
2022-08-05T09:08:26.698Z,33.30
2022-08-05T09:23:43.437Z,33.40
2022-08-05T09:39:02.605Z,33.50
2022-08-05T09:54:08.606Z,33.50
2022-08-05T10:09:27.799Z,33.60
2022-08-05T10:24:34.759Z,33.50
2022-08-05T10:39:59.180Z,33.50
2022-08-05T10:55:16.087Z,33.50
2022-08-05T11:10:29.214Z,33.50
2022-08-05T11:26:05.697Z,33.50
2022-08-05T11:41:35.021Z,33.60
2022-08-05T11:56:43.346Z,33.60
2022-08-05T12:11:55.249Z,33.80
2022-08-05T12:26:59.879Z,33.90
2022-08-05T12:42:18.663Z,34.00
2022-08-05T12:57:24.470Z,34.10
2022-08-05T13:12:29.303Z,34.10
2022-08-05T13:27:38.438Z,34.30
2022-08-05T13:42:43.883Z,34.30
2022-08-05T13:57:51.646Z,34.40
2022-08-05T14:12:57.193Z,34.50
2022-08-05T14:28:02.042Z,34.50
2022-08-05T14:43:07.606Z,34.50
2022-08-05T14:58:15.671Z,34.50
2022-08-05T15:13:20.328Z,34.50
2022-08-05T15:28:33.038Z,34.50
2022-08-05T15:43:45.464Z,34.50
2022-08-05T15:58:51.588Z,34.50
2022-08-05T16:13:56.225Z,34.50
2022-08-05T16:29:00.897Z,34.50
2022-08-05T16:44:05.856Z,34.50
2022-08-05T16:59:11.847Z,34.50
2022-08-05T17:14:34.108Z,34.40
2022-08-05T17:29:41.261Z,34.30
2022-08-05T17:44:50.135Z,34.20
2022-08-05T18:00:05.561Z,34.10
2022-08-05T18:15:11.871Z,34.00
2022-08-05T18:30:16.624Z,34.00
2022-08-05T18:45:21.324Z,33.80
2022-08-05T19:00:29.359Z,33.60
2022-08-05T19:15:58.295Z,33.60
2022-08-05T19:31:00.854Z,33.50
2022-08-05T19:46:06.078Z,33.30
